createdAt,value
2022-07-26T00:01:31.861Z,65.85
2022-07-26T00:04:03.076Z,65.66
2022-07-26T00:06:33.960Z,65.05
2022-07-26T00:09:02.495Z,65.02
2022-07-26T00:11:35.529Z,65.05
2022-07-26T00:14:07.978Z,65.09
2022-07-26T00:16:37.870Z,65.32
2022-07-26T00:19:11.282Z,65.66
2022-07-26T00:21:40.967Z,65.78
2022-07-26T00:24:11.963Z,65.85
2022-07-26T00:26:41.774Z,66.28
2022-07-26T00:29:11.952Z,66.17
2022-07-26T00:31:42.073Z,66.68
2022-07-26T00:34:11.515Z,67.09
2022-07-26T00:36:41.913Z,67.00
2022-07-26T00:39:12.255Z,66.67
2022-07-26T00:41:40.313Z,66.65
2022-07-26T00:44:10.454Z,66.59
2022-07-26T00:46:43.748Z,66.66
2022-07-26T00:49:14.103Z,66.78
2022-07-26T00:51:42.388Z,66.67
2022-07-26T00:54:19.430Z,66.67
2022-07-26T00:56:52.095Z,67.06
2022-07-26T00:59:27.860Z,67.54
2022-07-26T01:01:58.523Z,67.97
2022-07-26T01:04:28.075Z,67.47
2022-07-26T01:07:01.281Z,67.75
2022-07-26T01:09:32.322Z,67.81
2022-07-26T01:12:01.248Z,67.97
2022-07-26T01:14:29.437Z,67.70
2022-07-26T01:16:57.173Z,67.78
2022-07-26T01:19:27.811Z,67.89
2022-07-26T01:21:58.310Z,67.89
2022-07-26T01:24:29.052Z,68.00
2022-07-26T01:26:59.887Z,68.00
2022-07-26T01:29:36.202Z,68.25
2022-07-26T01:32:07.725Z,68.25
2022-07-26T01:34:38.323Z,68.54
2022-07-26T01:37:06.172Z,68.85
2022-07-26T01:39:34.207Z,68.89
2022-07-26T01:42:03.560Z,69.13
2022-07-26T01:44:31.530Z,69.23
2022-07-26T01:46:59.424Z,69.30
2022-07-26T01:49:27.775Z,69.48
2022-07-26T01:51:55.742Z,69.57
2022-07-26T01:54:24.625Z,70.23
2022-07-26T01:56:52.740Z,69.78
2022-07-26T01:59:20.448Z,70.02
2022-07-26T02:01:48.307Z,70.04
2022-07-26T02:04:36.489Z,70.06
2022-07-26T02:07:05.531Z,70.53
2022-07-26T02:09:39.541Z,70.62
2022-07-26T02:12:08.667Z,70.22
2022-07-26T02:14:36.439Z,70.32
2022-07-26T02:17:04.655Z,70.65
2022-07-26T02:19:32.921Z,70.45
2022-07-26T02:22:00.790Z,70.31
2022-07-26T02:24:29.631Z,70.13
2022-07-26T02:26:59.533Z,70.15
2022-07-26T02:29:28.608Z,70.32
2022-07-26T02:31:57.525Z,70.56
2022-07-26T02:34:25.613Z,70.89
2022-07-26T02:36:53.512Z,71.19
2022-07-26T02:39:22.533Z,71.28
2022-07-26T02:41:50.440Z,71.06
2022-07-26T02:44:18.188Z,71.43
2022-07-26T02:46:46.009Z,71.17
2022-07-26T02:49:13.987Z,71.53
2022-07-26T02:51:42.044Z,71.73
2022-07-26T02:54:10.308Z,71.92
2022-07-26T02:56:38.932Z,72.04
2022-07-26T02:59:08.737Z,71.42
2022-07-26T03:01:39.265Z,71.38
2022-07-26T03:04:10.307Z,71.45
2022-07-26T03:06:38.608Z,71.78
2022-07-26T03:09:06.419Z,71.81
2022-07-26T03:11:34.870Z,72.40
2022-07-26T03:14:03.297Z,72.49
2022-07-26T03:16:32.346Z,72.56
2022-07-26T03:19:01.617Z,72.60
2022-07-26T03:21:29.953Z,72.78
2022-07-26T03:23:57.788Z,72.65
2022-07-26T03:26:25.655Z,72.51
2022-07-26T03:28:54.029Z,72.70
2022-07-26T03:31:23.684Z,72.80
2022-07-26T03:33:51.582Z,72.88
2022-07-26T03:36:20.601Z,72.87
2022-07-26T03:38:48.463Z,72.62
2022-07-26T03:41:16.431Z,72.50
2022-07-26T03:43:44.299Z,72.64
2022-07-26T03:46:12.374Z,72.85
2022-07-26T03:48:40.518Z,72.91
2022-07-26T03:51:08.409Z,73.00
2022-07-26T03:53:36.204Z,72.93
2022-07-26T03:56:22.743Z,73.00
2022-07-26T03:58:50.595Z,73.13
2022-07-26T04:01:18.352Z,72.95
2022-07-26T04:03:47.884Z,73.31
2022-07-26T04:06:16.490Z,73.30
2022-07-26T04:08:44.649Z,73.13
2022-07-26T04:11:12.741Z,73.24
2022-07-26T04:13:40.497Z,72.98
2022-07-26T04:16:08.884Z,73.33
2022-07-26T04:18:36.685Z,72.77
2022-07-26T04:21:04.872Z,72.68
2022-07-26T04:23:32.600Z,72.72
2022-07-26T04:26:01.431Z,73.14
2022-07-26T04:28:29.339Z,73.36
2022-07-26T04:30:58.435Z,73.47
2022-07-26T04:33:26.308Z,73.52
2022-07-26T04:35:54.498Z,73.56
2022-07-26T04:38:23.160Z,73.51
2022-07-26T04:40:51.426Z,73.36
2022-07-26T04:43:19.837Z,73.48
2022-07-26T04:45:48.951Z,73.24
2022-07-26T04:48:17.110Z,73.10
2022-07-26T04:50:45.662Z,72.70
2022-07-26T04:53:13.662Z,72.70
2022-07-26T04:55:42.183Z,72.60
2022-07-26T04:58:10.656Z,72.42
2022-07-26T05:01:02.683Z,72.40
2022-07-26T05:03:26.243Z,72.36
2022-07-26T05:05:54.263Z,72.63
2022-07-26T05:08:22.025Z,72.23
2022-07-26T05:10:55.229Z,72.16
2022-07-26T05:13:30.589Z,72.10
2022-07-26T05:15:59.857Z,71.87
2022-07-26T05:18:31.597Z,71.69
2022-07-26T05:21:11.697Z,71.66
2022-07-26T05:23:41.710Z,71.71
2022-07-26T05:26:12.095Z,71.40
2022-07-26T05:28:40.181Z,71.20
2022-07-26T05:31:08.200Z,71.08
2022-07-26T05:33:36.221Z,71.04
2022-07-26T05:36:04.935Z,70.65
2022-07-26T05:38:33.801Z,70.35
2022-07-26T05:41:01.569Z,70.08
2022-07-26T05:43:40.604Z,69.82
2022-07-26T05:46:11.266Z,69.68
2022-07-26T05:48:40.161Z,69.57
2022-07-26T05:51:09.170Z,69.41
2022-07-26T05:53:37.787Z,69.48
2022-07-26T05:56:06.722Z,69.38
2022-07-26T05:58:34.641Z,69.31
2022-07-26T06:01:02.380Z,69.16
2022-07-26T06:03:32.367Z,68.84
2022-07-26T06:06:00.326Z,68.60
2022-07-26T06:08:28.260Z,68.34
2022-07-26T06:10:56.337Z,68.12
2022-07-26T06:13:24.709Z,68.01
2022-07-26T06:15:52.758Z,67.71
2022-07-26T06:18:20.749Z,67.49
2022-07-26T06:20:49.376Z,67.42
2022-07-26T06:23:17.227Z,67.50
2022-07-26T06:25:44.924Z,67.39
2022-07-26T06:28:13.215Z,67.18
2022-07-26T06:30:43.970Z,66.98
2022-07-26T06:33:12.149Z,66.61
2022-07-26T06:35:40.214Z,66.13
2022-07-26T06:38:08.828Z,65.19
2022-07-26T06:40:36.768Z,65.02
2022-07-26T06:43:05.089Z,63.84
2022-07-26T06:45:34.170Z,63.51
2022-07-26T06:48:02.131Z,63.47
2022-07-26T06:50:29.985Z,62.97
2022-07-26T06:52:57.736Z,62.74
2022-07-26T06:55:25.604Z,62.56
2022-07-26T06:57:55.543Z,62.09
2022-07-26T07:00:23.332Z,61.56
2022-07-26T07:02:51.354Z,61.78
2022-07-26T07:05:19.369Z,61.96
2022-07-26T07:07:47.291Z,62.03
2022-07-26T07:10:15.976Z,61.30
2022-07-26T07:12:45.070Z,59.30
2022-07-26T07:15:13.040Z,54.80
2022-07-26T07:17:41.057Z,51.69
2022-07-26T07:20:09.548Z,48.37
2022-07-26T07:22:37.602Z,46.29
2022-07-26T07:25:06.348Z,44.90
2022-07-26T07:27:34.653Z,44.08
2022-07-26T07:30:04.841Z,41.40
2022-07-26T07:32:33.279Z,40.60
2022-07-26T07:35:03.544Z,38.41
2022-07-26T07:37:52.368Z,35.25
2022-07-26T07:40:23.340Z,33.20
2022-07-26T07:42:51.440Z,35.22
2022-07-26T07:45:19.256Z,35.02
2022-07-26T07:47:47.278Z,34.42
2022-07-26T07:50:14.978Z,34.70
2022-07-26T07:52:42.729Z,34.03
2022-07-26T07:57:58.718Z,31.13
2022-07-26T08:00:33.080Z,30.91
2022-07-26T08:03:03.291Z,28.87
2022-07-26T08:05:31.397Z,28.66
2022-07-26T08:07:59.871Z,27.89
2022-07-26T08:10:29.771Z,26.59
2022-07-26T08:12:57.755Z,25.77
2022-07-26T08:15:27.976Z,25.02
2022-07-26T08:17:59.018Z,25.07
2022-07-26T08:20:28.213Z,24.01
2022-07-26T08:22:56.492Z,22.90
2022-07-26T08:25:24.196Z,22.37
2022-07-26T08:28:15.465Z,22.15
2022-07-26T08:30:41.595Z,20.86
2022-07-26T08:33:09.767Z,20.71
2022-07-26T08:35:37.660Z,20.55
2022-07-26T08:38:05.401Z,20.11
2022-07-26T08:40:34.383Z,19.79
2022-07-26T08:43:03.174Z,19.44
2022-07-26T08:45:32.356Z,19.72
2022-07-26T08:48:19.425Z,19.31
2022-07-26T08:50:48.763Z,18.40
2022-07-26T08:53:17.173Z,18.41
2022-07-26T08:56:05.908Z,18.67
2022-07-26T08:58:37.555Z,17.96
2022-07-26T09:01:15.259Z,17.67
2022-07-26T09:03:45.848Z,17.86
2022-07-26T09:06:20.210Z,17.47
2022-07-26T09:08:52.701Z,17.81
2022-07-26T09:11:23.371Z,17.42
2022-07-26T09:13:52.554Z,17.64
2022-07-26T09:16:21.097Z,18.38
2022-07-26T09:18:49.621Z,17.27
2022-07-26T09:21:47.088Z,16.97
2022-07-26T09:24:50.450Z,17.04
2022-07-26T09:27:18.967Z,18.08
2022-07-26T09:29:49.539Z,17.92
2022-07-26T09:32:19.037Z,17.52
2022-07-26T09:35:24.146Z,17.29
2022-07-26T09:37:58.062Z,18.58
2022-07-26T09:40:34.731Z,18.49
2022-07-26T09:43:05.487Z,17.76
2022-07-26T09:45:34.872Z,18.71
2022-07-26T09:48:03.865Z,18.56
2022-07-26T09:50:33.546Z,18.89
2022-07-26T09:53:04.902Z,18.70
2022-07-26T09:55:44.164Z,19.15
2022-07-26T09:58:14.817Z,19.58
2022-07-26T10:00:44.249Z,20.54
2022-07-26T10:03:12.338Z,21.84
2022-07-26T10:05:41.053Z,22.69
2022-07-26T10:08:09.971Z,23.80
2022-07-26T10:10:48.397Z,24.85
2022-07-26T10:13:17.934Z,26.14
2022-07-26T10:15:51.564Z,26.71
2022-07-26T10:18:39.188Z,26.75
2022-07-26T10:21:32.324Z,27.64
2022-07-26T10:24:03.028Z,28.18
2022-07-26T10:26:33.938Z,28.92
2022-07-26T10:29:18.930Z,29.51
2022-07-26T10:31:49.615Z,29.47
2022-07-26T10:34:37.061Z,30.85
2022-07-26T10:37:08.976Z,31.09
2022-07-26T10:39:39.067Z,31.97
2022-07-26T10:42:13.282Z,32.40
2022-07-26T10:44:45.026Z,33.21
2022-07-26T10:47:18.570Z,33.63
2022-07-26T10:50:01.253Z,33.78
2022-07-26T10:52:32.207Z,34.39
2022-07-26T10:55:00.977Z,35.00
2022-07-26T10:57:44.738Z,35.26
2022-07-26T11:00:13.877Z,36.09
2022-07-26T11:02:44.448Z,36.22
2022-07-26T11:05:19.680Z,37.15
2022-07-26T11:08:09.224Z,37.29
2022-07-26T11:10:42.197Z,38.39
2022-07-26T11:13:16.067Z,38.51
2022-07-26T11:15:49.194Z,38.74
2022-07-26T11:18:29.518Z,39.16
2022-07-26T11:21:13.487Z,38.92
2022-07-26T11:23:44.964Z,39.24
2022-07-26T11:26:21.559Z,39.54
2022-07-26T11:28:59.675Z,39.44
2022-07-26T11:31:55.411Z,39.97
2022-07-26T11:34:34.190Z,39.89
2022-07-26T11:37:05.346Z,39.94
2022-07-26T11:39:35.579Z,39.91
2022-07-26T11:42:09.091Z,40.03
2022-07-26T11:44:38.035Z,40.58
2022-07-26T11:47:24.197Z,40.52
2022-07-26T11:52:43.641Z,40.56
2022-07-26T11:55:12.736Z,41.09
2022-07-26T11:57:42.627Z,41.60
2022-07-26T12:00:16.872Z,41.51
2022-07-26T12:02:46.785Z,41.98
2022-07-26T12:05:23.805Z,42.28
2022-07-26T12:08:08.196Z,42.40
2022-07-26T12:10:37.413Z,43.22
2022-07-26T12:13:16.075Z,43.66
2022-07-26T12:15:52.967Z,44.34
2022-07-26T12:18:31.649Z,44.46
2022-07-26T12:21:05.177Z,44.84
2022-07-26T12:23:48.689Z,45.20
2022-07-26T12:26:30.949Z,45.10
2022-07-26T12:29:20.125Z,45.25
2022-07-26T12:32:02.975Z,46.07
2022-07-26T12:34:31.886Z,46.87
2022-07-26T12:37:07.737Z,47.03
2022-07-26T12:39:35.776Z,48.12
2022-07-26T12:42:33.424Z,48.08
2022-07-26T12:45:07.727Z,49.24
2022-07-26T12:47:38.095Z,49.52
2022-07-26T12:50:08.617Z,50.16
2022-07-26T12:52:38.630Z,50.64
2022-07-26T12:55:10.327Z,50.55
2022-07-26T12:57:38.157Z,50.25
2022-07-26T13:00:12.753Z,50.34
2022-07-26T13:02:45.749Z,50.72
2022-07-26T13:05:15.226Z,50.43
2022-07-26T13:07:44.151Z,50.30
2022-07-26T13:10:32.353Z,50.49
2022-07-26T13:13:04.385Z,50.19
2022-07-26T13:15:36.138Z,50.41
2022-07-26T13:18:08.505Z,50.31
2022-07-26T13:20:38.995Z,50.74
2022-07-26T13:23:12.700Z,51.40
2022-07-26T13:25:44.122Z,51.73
2022-07-26T13:28:12.909Z,52.29
2022-07-26T13:30:43.348Z,52.85
2022-07-26T13:33:14.314Z,52.95
2022-07-26T13:35:44.243Z,53.35
2022-07-26T13:38:12.178Z,54.21
2022-07-26T13:40:40.987Z,54.95
2022-07-26T13:43:10.101Z,55.14
2022-07-26T13:45:37.936Z,55.66
2022-07-26T13:48:08.473Z,55.69
2022-07-26T13:50:37.363Z,56.13
2022-07-26T13:53:05.164Z,56.41
2022-07-26T13:55:33.739Z,56.67
2022-07-26T13:58:09.208Z,56.65
2022-07-26T14:00:41.855Z,57.69
2022-07-26T14:03:10.726Z,57.85
2022-07-26T14:05:38.540Z,57.90
2022-07-26T14:08:08.431Z,58.28
2022-07-26T14:10:40.067Z,58.86
2022-07-26T14:13:09.581Z,59.28
2022-07-26T14:15:40.503Z,59.38
2022-07-26T14:18:10.239Z,59.79
2022-07-26T14:20:39.076Z,59.75
2022-07-26T14:23:06.830Z,60.48
2022-07-26T14:25:37.306Z,61.38
2022-07-26T14:28:06.364Z,62.28
2022-07-26T14:30:35.852Z,62.76
2022-07-26T14:33:05.974Z,63.60
2022-07-26T14:35:33.982Z,64.48
2022-07-26T14:38:01.693Z,65.55
2022-07-26T14:40:30.804Z,65.87
2022-07-26T14:42:59.623Z,66.91
2022-07-26T14:45:27.710Z,66.11
2022-07-26T14:47:57.325Z,67.01
2022-07-26T14:50:28.349Z,68.15
2022-07-26T14:52:56.369Z,68.60
2022-07-26T14:55:25.825Z,71.03
2022-07-26T14:57:55.014Z,69.31
2022-07-26T15:00:25.983Z,69.86
2022-07-26T15:02:54.823Z,70.25
2022-07-26T15:05:25.405Z,70.85
2022-07-26T15:07:57.277Z,71.29
2022-07-26T15:10:32.703Z,71.92
2022-07-26T15:13:05.602Z,72.55
2022-07-26T15:15:34.420Z,72.81
2022-07-26T15:18:02.406Z,73.38
2022-07-26T15:20:30.409Z,74.29
2022-07-26T15:22:58.836Z,73.44
2022-07-26T15:25:27.298Z,74.21
2022-07-26T15:27:55.259Z,73.93
2022-07-26T15:30:25.538Z,74.88
2022-07-26T15:32:58.954Z,74.12
2022-07-26T15:35:26.770Z,74.73
2022-07-26T15:37:54.574Z,75.36
2022-07-26T15:40:22.309Z,75.61
2022-07-26T15:42:53.052Z,76.59
2022-07-26T15:45:23.103Z,75.44
2022-07-26T15:47:59.323Z,75.46
2022-07-26T15:50:34.096Z,76.27
2022-07-26T15:53:03.188Z,75.99
2022-07-26T15:55:31.193Z,76.05
2022-07-26T15:58:00.329Z,75.72
2022-07-26T16:00:29.162Z,76.56
2022-07-26T16:02:56.854Z,77.75
2022-07-26T16:05:26.336Z,77.22
2022-07-26T16:07:57.015Z,77.26
2022-07-26T16:10:26.147Z,78.61
2022-07-26T16:12:56.873Z,77.67
2022-07-26T16:15:25.219Z,78.02
2022-07-26T16:17:54.234Z,77.45
2022-07-26T16:20:22.005Z,78.55
2022-07-26T16:22:51.275Z,79.34
2022-07-26T16:25:19.247Z,78.89
2022-07-26T16:27:47.878Z,78.46
2022-07-26T16:30:18.243Z,78.76
2022-07-26T16:32:49.454Z,78.60
2022-07-26T16:35:18.013Z,79.32
2022-07-26T16:37:46.059Z,79.98
2022-07-26T16:40:15.973Z,79.24
2022-07-26T16:42:43.711Z,79.37
2022-07-26T16:45:12.365Z,79.86
2022-07-26T16:47:44.888Z,79.58
2022-07-26T16:50:15.012Z,80.28
2022-07-26T16:52:58.089Z,81.07
2022-07-26T16:55:25.929Z,80.98
2022-07-26T16:57:55.487Z,81.49
2022-07-26T17:00:23.273Z,81.00
2022-07-26T17:02:51.293Z,80.58
2022-07-26T17:05:19.352Z,80.42
2022-07-26T17:07:47.588Z,81.09
2022-07-26T17:10:15.416Z,81.30
2022-07-26T17:12:43.164Z,81.30
2022-07-26T17:15:14.065Z,81.14
2022-07-26T17:17:45.659Z,81.45
2022-07-26T17:20:18.003Z,80.68
2022-07-26T17:22:46.909Z,81.50
2022-07-26T17:25:14.698Z,81.62
2022-07-26T17:27:42.483Z,81.36
2022-07-26T17:30:10.866Z,81.31
2022-07-26T17:32:38.891Z,80.83
2022-07-26T17:35:09.314Z,81.15
2022-07-26T17:37:40.167Z,80.78
2022-07-26T17:40:11.464Z,80.47
2022-07-26T17:42:42.043Z,79.92
2022-07-26T17:45:12.811Z,79.57
2022-07-26T17:47:43.367Z,79.58
2022-07-26T17:50:35.539Z,80.30
2022-07-26T17:53:01.596Z,79.83
2022-07-26T17:55:29.555Z,79.51
2022-07-26T17:58:00.788Z,79.23
2022-07-26T18:00:31.650Z,79.35
2022-07-26T18:02:59.617Z,79.64
2022-07-26T18:05:34.228Z,79.16
2022-07-26T18:08:07.774Z,79.07
2022-07-26T18:10:38.377Z,79.66
2022-07-26T18:13:08.546Z,79.54
2022-07-26T18:15:36.652Z,79.70
2022-07-26T18:18:10.563Z,80.01
2022-07-26T18:20:40.179Z,80.27
2022-07-26T18:23:10.480Z,80.33
2022-07-26T18:25:38.710Z,80.78
2022-07-26T18:28:10.298Z,80.60
2022-07-26T18:30:40.690Z,80.25
2022-07-26T18:33:14.667Z,80.23
2022-07-26T18:35:45.399Z,80.28
2022-07-26T18:38:15.093Z,80.01
2022-07-26T18:40:44.811Z,80.54
2022-07-26T18:43:14.056Z,80.86
2022-07-26T18:45:42.395Z,80.53
2022-07-26T18:48:12.953Z,80.74
2022-07-26T18:50:42.311Z,80.82
2022-07-26T18:53:11.129Z,80.89
2022-07-26T18:55:40.722Z,80.60
2022-07-26T18:58:08.840Z,80.45
2022-07-26T19:00:36.972Z,80.60
2022-07-26T19:03:06.626Z,80.90
2022-07-26T19:05:37.337Z,80.99
2022-07-26T19:08:05.477Z,81.30
2022-07-26T19:10:34.069Z,81.43
2022-07-26T19:13:02.185Z,81.47
2022-07-26T19:15:32.198Z,81.46
2022-07-26T19:18:09.319Z,81.14
2022-07-26T19:20:37.080Z,81.50
2022-07-26T19:23:07.189Z,82.14
2022-07-26T19:25:35.188Z,82.27
2022-07-26T19:28:09.349Z,81.66
2022-07-26T19:30:39.535Z,81.73
2022-07-26T19:33:07.918Z,81.95
2022-07-26T19:35:36.171Z,82.41
2022-07-26T19:38:06.999Z,82.27
2022-07-26T19:40:36.409Z,82.62
2022-07-26T19:43:06.647Z,82.45
2022-07-26T19:45:34.414Z,82.45
2022-07-26T19:48:02.267Z,82.47
2022-07-26T19:50:31.252Z,82.09
2022-07-26T19:52:59.353Z,82.69
2022-07-26T19:55:27.445Z,82.99
2022-07-26T19:57:58.560Z,83.14
2022-07-26T20:00:31.002Z,83.52
2022-07-26T20:02:58.931Z,82.51
2022-07-26T20:05:29.913Z,82.43
2022-07-26T20:07:58.671Z,82.05
2022-07-26T20:10:32.246Z,82.42
2022-07-26T20:13:00.734Z,82.17
2022-07-26T20:15:31.043Z,82.49
2022-07-26T20:17:59.197Z,82.07
2022-07-26T20:20:30.287Z,81.79
2022-07-26T20:22:58.191Z,82.27
2022-07-26T20:25:28.375Z,82.22
2022-07-26T20:27:58.055Z,82.03
2022-07-26T20:30:28.179Z,82.69
2022-07-26T20:32:56.033Z,81.98
2022-07-26T20:35:26.097Z,81.98
2022-07-26T20:37:54.060Z,81.93
2022-07-26T20:40:22.058Z,81.83
2022-07-26T20:42:54.443Z,82.12
2022-07-26T20:45:27.252Z,82.52
2022-07-26T20:47:56.222Z,82.10
2022-07-26T20:50:24.285Z,81.85
2022-07-26T20:52:52.110Z,82.59
2022-07-26T20:55:26.983Z,82.32
2022-07-26T20:57:57.071Z,83.15
2022-07-26T21:00:29.472Z,83.36
2022-07-26T21:03:00.588Z,83.60
2022-07-26T21:05:32.334Z,83.10
2022-07-26T21:08:02.334Z,83.34
2022-07-26T21:10:32.727Z,83.64
2022-07-26T21:13:01.386Z,82.99
2022-07-26T21:15:32.772Z,82.22
2022-07-26T21:18:01.492Z,82.69
2022-07-26T21:20:29.293Z,82.94
2022-07-26T21:23:08.068Z,83.04
2022-07-26T21:25:44.242Z,83.40
2022-07-26T21:28:12.016Z,83.46
2022-07-26T21:30:40.665Z,83.69
2022-07-26T21:33:08.599Z,83.63
2022-07-26T21:35:37.018Z,83.41
2022-07-26T21:38:04.837Z,83.19
2022-07-26T21:40:32.562Z,83.36
2022-07-26T21:43:01.318Z,83.60
2022-07-26T21:45:31.754Z,83.73
2022-07-26T21:48:03.173Z,84.03
2022-07-26T21:50:35.057Z,83.89
2022-07-26T21:53:02.821Z,83.47
2022-07-26T21:55:32.841Z,83.81
2022-07-26T21:58:01.229Z,83.88
2022-07-26T22:00:28.944Z,84.11
2022-07-26T22:02:58.469Z,83.62
2022-07-26T22:05:43.942Z,83.41
2022-07-26T22:08:15.068Z,83.29
2022-07-26T22:10:48.363Z,83.36
2022-07-26T22:13:16.547Z,83.50
2022-07-26T22:15:46.106Z,83.51
2022-07-26T22:18:15.065Z,83.52
2022-07-26T22:20:47.488Z,83.65
2022-07-26T22:23:17.365Z,83.89
2022-07-26T22:25:48.491Z,83.57
2022-07-26T22:28:17.927Z,83.85
2022-07-26T22:30:50.674Z,83.44
2022-07-26T22:33:18.668Z,83.34
2022-07-26T22:35:50.579Z,84.21
2022-07-26T22:38:21.515Z,84.67
2022-07-26T22:40:51.766Z,84.29
2022-07-26T22:43:19.775Z,83.75
2022-07-26T22:45:49.255Z,83.84
2022-07-26T22:48:18.084Z,83.95
2022-07-26T22:50:46.022Z,83.70
2022-07-26T22:53:14.961Z,83.99
2022-07-26T22:55:42.956Z,83.66
2022-07-26T22:58:11.714Z,83.86
2022-07-26T23:00:39.569Z,83.74
2022-07-26T23:03:20.382Z,83.76
2022-07-26T23:05:52.356Z,83.90
2022-07-26T23:08:47.077Z,83.89
2022-07-26T23:11:12.690Z,83.96
2022-07-26T23:13:44.787Z,84.45
2022-07-26T23:16:12.566Z,84.70
2022-07-26T23:18:43.810Z,84.38
2022-07-26T23:21:11.662Z,84.17
2022-07-26T23:23:39.632Z,84.19
2022-07-26T23:26:07.500Z,84.24
2022-07-26T23:28:38.268Z,84.57
2022-07-26T23:31:08.846Z,84.56
2022-07-26T23:33:51.612Z,84.71
2022-07-26T23:36:27.304Z,84.45
2022-07-26T23:38:57.076Z,84.55
2022-07-26T23:41:26.748Z,84.33
2022-07-26T23:43:55.337Z,84.47
2022-07-26T23:46:23.696Z,84.89
2022-07-26T23:48:52.610Z,84.89
2022-07-26T23:51:23.022Z,84.79
2022-07-26T23:53:51.808Z,84.91
2022-07-26T23:56:19.965Z,84.91
2022-07-26T23:58:47.952Z,85.01
